Aérodrome :
LOGIN :

S'inscrire | Disclaimer

   EN    FR    IT 

 










Légende :    VFR   VFR Marginal   IFR   IFR Intensif   IFR Très Intensif
Visi : 
Plafond : 
>= 8 km
>= 3000ft
5 à 8 km
1000 à 3000 ft
1500m à 5 km
500 à 1000 ft
800 à 1500m
200 à 500 ft
< 800m
< 200 ft
Symboles :   Orages  Brouillard  Fortes neiges  Fortes précipitations  Vent > 20 kt
SIGMETs :   Divers  Orages  Givrage  Turbulence  Onde Orograph.  Cendres Volcan.






- Altitude de l'aérodrome : 120 ft
- Code IATA : MME


EGNV - Durham Tees valley

DERNIER METAR :
  • 162050Z 36013KT 7000 -DZRA SCT008 BKN013 14/12 Q1014

METARs EXPIRÉS :
  • 162020Z 36013KT 8000 FEW008 BKN013 14/12 Q1013
  • 161950Z 36012KT 7000 SCT011 BKN013 15/12 Q1013
  • 161920Z 01013KT 8000 SCT011 BKN015 15/12 Q1012
  • 161850Z 01013KT 8000 SCT013 BKN015 15/12 Q1012

Prévision TAF périmée.
ATIS : +44 9012 018 111



MET'MAP, la Météo Aéronautique d'un coup d'oeil ! - Copyright ORBIFLY Décembre 2007 - Disclaimer

ORBIFLY MET'MAP TEAM :

Programmation & Développement : Alexandra Zaïnal
Sur une idée originale de : Baudouin d'Aumeries
Soutien technique & logistique : Manuel Goepfert
Assistance : Marc-Olivier Méhu




SOURCES & CREDITS :

   NOAA